sensor_id;sensor_type;location;lat;lon;timestamp;P1;durP1;ratioP1;P2;durP2;ratioP2
11010;SDS011;5558;42.702;23.178;2023-12-04T00:02:01;9.73;;;6.47;;
11010;SDS011;5558;42.702;23.178;2023-12-04T00:04:30;8.53;;;6.77;;
11010;SDS011;5558;42.702;23.178;2023-12-04T00:06:56;7.47;;;5.37;;
11010;SDS011;5558;42.702;23.178;2023-12-04T00:09:24;7.67;;;5.57;;
11010;SDS011;5558;42.702;23.178;2023-12-04T00:11:52;6.60;;;5.27;;
11010;SDS011;5558;42.702;23.178;2023-12-04T00:14:19;8.00;;;5.50;;
11010;SDS011;5558;42.702;23.178;2023-12-04T00:16:45;8.83;;;5.90;;
11010;SDS011;5558;42.702;23.178;2023-12-04T00:19:12;9.30;;;6.30;;
11010;SDS011;5558;42.702;23.178;2023-12-04T00:21:41;7.13;;;5.40;;
11010;SDS011;5558;42.702;23.178;2023-12-04T00:24:07;8.13;;;5.80;;
11010;SDS011;5558;42.702;23.178;2023-12-04T00:26:34;7.50;;;5.63;;
11010;SDS011;5558;42.702;23.178;2023-12-04T00:29:01;8.03;;;5.50;;
11010;SDS011;5558;42.702;23.178;2023-12-04T00:31:28;8.00;;;5.97;;
11010;SDS011;5558;42.702;23.178;2023-12-04T00:33:56;9.33;;;6.53;;
11010;SDS011;5558;42.702;23.178;2023-12-04T00:36:23;8.10;;;5.90;;
11010;SDS011;5558;42.702;23.178;2023-12-04T00:38:51;9.57;;;6.53;;
11010;SDS011;5558;42.702;23.178;2023-12-04T00:41:18;6.67;;;5.50;;
11010;SDS011;5558;42.702;23.178;2023-12-04T00:43:44;8.17;;;5.90;;
11010;SDS011;5558;42.702;23.178;2023-12-04T00:46:11;7.97;;;5.77;;
11010;SDS011;5558;42.702;23.178;2023-12-04T00:48:38;8.33;;;6.23;;
11010;SDS011;5558;42.702;23.178;2023-12-04T00:51:05;8.60;;;6.30;;
11010;SDS011;5558;42.702;23.178;2023-12-04T00:53:32;8.73;;;5.60;;
11010;SDS011;5558;42.702;23.178;2023-12-04T00:56:00;8.93;;;6.43;;
11010;SDS011;5558;42.702;23.178;2023-12-04T00:58:27;8.10;;;5.63;;
11010;SDS011;5558;42.702;23.178;2023-12-04T01:00:54;8.50;;;5.93;;
11010;SDS011;5558;42.702;23.178;2023-12-04T01:03:22;7.73;;;5.63;;
11010;SDS011;5558;42.702;23.178;2023-12-04T01:05:51;6.77;;;5.57;;
11010;SDS011;5558;42.702;23.178;2023-12-04T01:08:18;8.30;;;5.80;;
11010;SDS011;5558;42.702;23.178;2023-12-04T01:10:45;7.33;;;5.50;;
11010;SDS011;5558;42.702;23.178;2023-12-04T01:13:13;7.57;;;5.70;;
11010;SDS011;5558;42.702;23.178;2023-12-04T01:15:40;9.63;;;5.97;;
11010;SDS011;5558;42.702;23.178;2023-12-04T01:18:07;7.10;;;5.37;;
11010;SDS011;5558;42.702;23.178;2023-12-04T01:20:34;8.20;;;5.57;;
11010;SDS011;5558;42.702;23.178;2023-12-04T01:23:01;7.40;;;5.33;;
11010;SDS011;5558;42.702;23.178;2023-12-04T01:25:28;9.00;;;5.20;;
11010;SDS011;5558;42.702;23.178;2023-12-04T01:27:55;6.53;;;4.90;;
11010;SDS011;5558;42.702;23.178;2023-12-04T01:30:25;7.43;;;5.70;;
11010;SDS011;5558;42.702;23.178;2023-12-04T01:32:52;7.03;;;5.20;;
11010;SDS011;5558;42.702;23.178;2023-12-04T01:35:19;7.47;;;5.50;;
11010;SDS011;5558;42.702;23.178;2023-12-04T01:37:45;7.03;;;5.33;;
11010;SDS011;5558;42.702;23.178;2023-12-04T01:40:12;6.67;;;5.23;;
11010;SDS011;5558;42.702;23.178;2023-12-04T01:42:39;7.83;;;5.27;;
11010;SDS011;5558;42.702;23.178;2023-12-04T01:45:09;8.23;;;5.43;;
11010;SDS011;5558;42.702;23.178;2023-12-04T01:47:37;8.30;;;6.20;;
11010;SDS011;5558;42.702;23.178;2023-12-04T01:50:05;7.43;;;5.47;;
11010;SDS011;5558;42.702;23.178;2023-12-04T01:52:33;7.90;;;5.67;;
11010;SDS011;5558;42.702;23.178;2023-12-04T01:55:00;7.80;;;5.47;;
11010;SDS011;5558;42.702;23.178;2023-12-04T01:57:28;7.47;;;5.73;;
11010;SDS011;5558;42.702;23.178;2023-12-04T01:59:55;8.43;;;5.60;;
11010;SDS011;5558;42.702;23.178;2023-12-04T02:02:22;7.50;;;5.67;;
11010;SDS011;5558;42.702;23.178;2023-12-04T02:04:50;7.10;;;5.70;;
11010;SDS011;5558;42.702;23.178;2023-12-04T02:07:17;7.77;;;6.27;;
11010;SDS011;5558;42.702;23.178;2023-12-04T02:09:44;7.20;;;5.33;;
11010;SDS011;5558;42.702;23.178;2023-12-04T02:12:11;7.03;;;5.33;;
11010;SDS011;5558;42.702;23.178;2023-12-04T02:14:37;7.40;;;5.40;;
11010;SDS011;5558;42.702;23.178;2023-12-04T02:17:03;7.43;;;5.33;;
11010;SDS011;5558;42.702;23.178;2023-12-04T02:19:32;7.20;;;5.30;;
11010;SDS011;5558;42.702;23.178;2023-12-04T02:22:00;6.13;;;5.10;;
11010;SDS011;5558;42.702;23.178;2023-12-04T02:24:28;7.57;;;5.47;;
11010;SDS011;5558;42.702;23.178;2023-12-04T02:26:57;7.33;;;5.33;;
11010;SDS011;5558;42.702;23.178;2023-12-04T02:29:29;6.90;;;5.30;;
11010;SDS011;5558;42.702;23.178;2023-12-04T02:31:58;7.80;;;5.63;;
11010;SDS011;5558;42.702;23.178;2023-12-04T02:34:28;7.97;;;5.40;;
11010;SDS011;5558;42.702;23.178;2023-12-04T02:36:58;7.73;;;5.37;;
11010;SDS011;5558;42.702;23.178;2023-12-04T02:39:26;7.47;;;5.60;;
11010;SDS011;5558;42.702;23.178;2023-12-04T02:41:55;6.40;;;5.00;;
11010;SDS011;5558;42.702;23.178;2023-12-04T02:44:21;7.83;;;5.70;;
11010;SDS011;5558;42.702;23.178;2023-12-04T02:46:48;17.63;;;10.47;;
11010;SDS011;5558;42.702;23.178;2023-12-04T02:49:15;7.47;;;5.60;;
11010;SDS011;5558;42.702;23.178;2023-12-04T02:51:42;15.93;;;9.10;;
11010;SDS011;5558;42.702;23.178;2023-12-04T02:54:08;6.23;;;4.90;;
11010;SDS011;5558;42.702;23.178;2023-12-04T02:56:36;6.53;;;4.90;;
11010;SDS011;5558;42.702;23.178;2023-12-04T02:59:03;6.50;;;4.90;;
11010;SDS011;5558;42.702;23.178;2023-12-04T03:01:30;11.53;;;7.33;;
11010;SDS011;5558;42.702;23.178;2023-12-04T03:03:57;8.70;;;6.27;;
11010;SDS011;5558;42.702;23.178;2023-12-04T03:06:23;7.70;;;5.40;;
11010;SDS011;5558;42.702;23.178;2023-12-04T03:08:50;6.27;;;4.90;;
11010;SDS011;5558;42.702;23.178;2023-12-04T03:11:17;7.50;;;5.13;;
11010;SDS011;5558;42.702;23.178;2023-12-04T03:13:45;7.53;;;5.37;;
11010;SDS011;5558;42.702;23.178;2023-12-04T03:16:15;6.27;;;5.07;;
11010;SDS011;5558;42.702;23.178;2023-12-04T03:18:42;6.93;;;5.00;;
11010;SDS011;5558;42.702;23.178;2023-12-04T03:21:09;8.67;;;5.80;;
11010;SDS011;5558;42.702;23.178;2023-12-04T03:23:36;7.33;;;4.90;;
11010;SDS011;5558;42.702;23.178;2023-12-04T03:26:03;7.97;;;5.80;;
11010;SDS011;5558;42.702;23.178;2023-12-04T03:28:30;6.87;;;4.97;;
11010;SDS011;5558;42.702;23.178;2023-12-04T03:30:58;15.40;;;7.97;;
11010;SDS011;5558;42.702;23.178;2023-12-04T03:33:24;6.73;;;5.10;;
11010;SDS011;5558;42.702;23.178;2023-12-04T03:35:51;7.97;;;5.40;;
11010;SDS011;5558;42.702;23.178;2023-12-04T03:38:18;7.23;;;4.87;;
11010;SDS011;5558;42.702;23.178;2023-12-04T03:40:45;5.87;;;4.63;;
11010;SDS011;5558;42.702;23.178;2023-12-04T03:43:11;8.20;;;5.03;;
11010;SDS011;5558;42.702;23.178;2023-12-04T03:45:38;7.43;;;5.40;;
11010;SDS011;5558;42.702;23.178;2023-12-04T03:48:06;8.33;;;5.50;;
11010;SDS011;5558;42.702;23.178;2023-12-04T03:50:33;7.73;;;5.40;;
11010;SDS011;5558;42.702;23.178;2023-12-04T03:53:00;7.50;;;5.40;;
11010;SDS011;5558;42.702;23.178;2023-12-04T03:55:26;8.20;;;5.27;;
11010;SDS011;5558;42.702;23.178;2023-12-04T03:57:54;8.07;;;5.20;;
11010;SDS011;5558;42.702;23.178;2023-12-04T04:00:21;6.87;;;5.27;;
11010;SDS011;5558;42.702;23.178;2023-12-04T04:02:48;6.57;;;5.00;;
11010;SDS011;5558;42.702;23.178;2023-12-04T04:05:16;6.80;;;5.50;;
11010;SDS011;5558;42.702;23.178;2023-12-04T04:07:43;7.30;;;5.57;;
11010;SDS011;5558;42.702;23.178;2023-12-04T04:10:09;7.63;;;5.53;;
11010;SDS011;5558;42.702;23.178;2023-12-04T04:12:37;7.83;;;5.50;;
11010;SDS011;5558;42.702;23.178;2023-12-04T04:15:04;6.60;;;5.50;;
11010;SDS011;5558;42.702;23.178;2023-12-04T04:17:31;6.90;;;5.30;;
11010;SDS011;5558;42.702;23.178;2023-12-04T04:19:58;7.27;;;5.30;;
11010;SDS011;5558;42.702;23.178;2023-12-04T04:22:27;8.73;;;5.87;;
11010;SDS011;5558;42.702;23.178;2023-12-04T04:24:53;7.50;;;5.40;;
11010;SDS011;5558;42.702;23.178;2023-12-04T04:27:20;13.97;;;8.23;;
11010;SDS011;5558;42.702;23.178;2023-12-04T04:29:47;9.13;;;6.10;;
11010;SDS011;5558;42.702;23.178;2023-12-04T04:32:13;6.40;;;5.20;;
11010;SDS011;5558;42.702;23.178;2023-12-04T04:34:40;7.57;;;5.43;;
11010;SDS011;5558;42.702;23.178;2023-12-04T04:37:07;7.40;;;5.20;;
11010;SDS011;5558;42.702;23.178;2023-12-04T04:39:35;6.00;;;4.87;;
11010;SDS011;5558;42.702;23.178;2023-12-04T04:42:02;6.73;;;5.40;;
11010;SDS011;5558;42.702;23.178;2023-12-04T04:44:29;6.87;;;5.20;;
11010;SDS011;5558;42.702;23.178;2023-12-04T04:46:55;7.00;;;5.10;;
11010;SDS011;5558;42.702;23.178;2023-12-04T04:49:22;6.13;;;4.93;;
11010;SDS011;5558;42.702;23.178;2023-12-04T04:51:49;6.43;;;4.70;;
11010;SDS011;5558;42.702;23.178;2023-12-04T04:54:16;5.33;;;4.20;;
11010;SDS011;5558;42.702;23.178;2023-12-04T04:56:44;6.50;;;4.97;;
11010;SDS011;5558;42.702;23.178;2023-12-04T04:59:10;6.70;;;5.30;;
11010;SDS011;5558;42.702;23.178;2023-12-04T05:01:37;8.93;;;4.83;;
11010;SDS011;5558;42.702;23.178;2023-12-04T05:04:04;6.17;;;4.93;;
11010;SDS011;5558;42.702;23.178;2023-12-04T05:06:31;6.97;;;5.00;;
11010;SDS011;5558;42.702;23.178;2023-12-04T05:08:58;7.13;;;5.13;;
11010;SDS011;5558;42.702;23.178;2023-12-04T05:11:25;7.20;;;5.47;;
11010;SDS011;5558;42.702;23.178;2023-12-04T05:13:53;7.03;;;4.73;;
11010;SDS011;5558;42.702;23.178;2023-12-04T05:16:19;8.13;;;5.40;;
11010;SDS011;5558;42.702;23.178;2023-12-04T05:18:46;6.43;;;5.07;;
11010;SDS011;5558;42.702;23.178;2023-12-04T05:21:13;7.30;;;4.93;;
11010;SDS011;5558;42.702;23.178;2023-12-04T05:23:40;6.43;;;4.60;;
11010;SDS011;5558;42.702;23.178;2023-12-04T05:26:09;7.43;;;5.30;;
11010;SDS011;5558;42.702;23.178;2023-12-04T05:28:36;7.23;;;5.40;;
11010;SDS011;5558;42.702;23.178;2023-12-04T05:31:04;7.73;;;5.73;;
11010;SDS011;5558;42.702;23.178;2023-12-04T05:33:31;125.40;;;31.40;;
11010;SDS011;5558;42.702;23.178;2023-12-04T05:35:59;93.87;;;29.20;;
11010;SDS011;5558;42.702;23.178;2023-12-04T05:38:26;15.40;;;7.90;;
11010;SDS011;5558;42.702;23.178;2023-12-04T05:40:53;16.10;;;7.93;;
11010;SDS011;5558;42.702;23.178;2023-12-04T05:43:20;7.13;;;5.43;;
11010;SDS011;5558;42.702;23.178;2023-12-04T05:45:46;8.40;;;5.83;;
11010;SDS011;5558;42.702;23.178;2023-12-04T05:48:14;8.53;;;6.07;;
11010;SDS011;5558;42.702;23.178;2023-12-04T05:50:41;9.93;;;6.63;;
11010;SDS011;5558;42.702;23.178;2023-12-04T05:53:08;8.67;;;6.37;;
11010;SDS011;5558;42.702;23.178;2023-12-04T05:55:35;8.33;;;6.80;;
11010;SDS011;5558;42.702;23.178;2023-12-04T05:58:01;9.30;;;7.20;;
11010;SDS011;5558;42.702;23.178;2023-12-04T06:00:28;7.50;;;5.70;;
11010;SDS011;5558;42.702;23.178;2023-12-04T06:02:55;8.27;;;6.30;;
11010;SDS011;5558;42.702;23.178;2023-12-04T06:05:23;9.00;;;5.77;;
11010;SDS011;5558;42.702;23.178;2023-12-04T06:07:50;9.17;;;5.73;;
11010;SDS011;5558;42.702;23.178;2023-12-04T06:10:16;8.63;;;6.13;;
11010;SDS011;5558;42.702;23.178;2023-12-04T06:12:43;11.70;;;9.60;;
11010;SDS011;5558;42.702;23.178;2023-12-04T06:15:10;11.07;;;8.40;;
11010;SDS011;5558;42.702;23.178;2023-12-04T06:17:37;8.70;;;6.43;;
11010;SDS011;5558;42.702;23.178;2023-12-04T06:20:04;8.30;;;5.83;;
11010;SDS011;5558;42.702;23.178;2023-12-04T06:22:34;8.80;;;6.10;;
11010;SDS011;5558;42.702;23.178;2023-12-04T06:25:01;7.83;;;6.10;;
11010;SDS011;5558;42.702;23.178;2023-12-04T06:27:28;7.40;;;5.80;;
11010;SDS011;5558;42.702;23.178;2023-12-04T06:29:56;10.00;;;7.20;;
11010;SDS011;5558;42.702;23.178;2023-12-04T06:32:23;10.33;;;6.23;;
11010;SDS011;5558;42.702;23.178;2023-12-04T06:34:50;9.50;;;6.17;;
11010;SDS011;5558;42.702;23.178;2023-12-04T06:37:19;8.03;;;6.50;;
11010;SDS011;5558;42.702;23.178;2023-12-04T06:39:48;8.50;;;6.13;;
11010;SDS011;5558;42.702;23.178;2023-12-04T06:42:17;7.93;;;6.03;;
11010;SDS011;5558;42.702;23.178;2023-12-04T06:44:45;7.53;;;5.70;;
11010;SDS011;5558;42.702;23.178;2023-12-04T06:47:12;8.13;;;5.63;;
11010;SDS011;5558;42.702;23.178;2023-12-04T06:49:43;8.60;;;6.30;;
11010;SDS011;5558;42.702;23.178;2023-12-04T06:52:10;9.00;;;6.10;;
11010;SDS011;5558;42.702;23.178;2023-12-04T06:54:36;8.77;;;6.07;;
11010;SDS011;5558;42.702;23.178;2023-12-04T06:57:05;9.10;;;6.27;;
11010;SDS011;5558;42.702;23.178;2023-12-04T06:59:31;10.13;;;7.60;;
11010;SDS011;5558;42.702;23.178;2023-12-04T07:01:58;8.50;;;6.23;;
11010;SDS011;5558;42.702;23.178;2023-12-04T07:04:25;9.17;;;6.60;;
11010;SDS011;5558;42.702;23.178;2023-12-04T07:06:51;8.50;;;5.80;;
11010;SDS011;5558;42.702;23.178;2023-12-04T07:09:18;7.57;;;5.77;;
11010;SDS011;5558;42.702;23.178;2023-12-04T07:11:45;8.47;;;6.63;;
11010;SDS011;5558;42.702;23.178;2023-12-04T07:14:13;8.17;;;5.97;;
11010;SDS011;5558;42.702;23.178;2023-12-04T07:16:40;8.10;;;6.30;;
11010;SDS011;5558;42.702;23.178;2023-12-04T07:19:08;8.53;;;5.67;;
11010;SDS011;5558;42.702;23.178;2023-12-04T07:21:35;6.37;;;5.10;;
11010;SDS011;5558;42.702;23.178;2023-12-04T07:24:02;7.67;;;5.97;;
11010;SDS011;5558;42.702;23.178;2023-12-04T07:26:30;8.03;;;5.57;;
11010;SDS011;5558;42.702;23.178;2023-12-04T07:28:57;8.50;;;5.87;;
11010;SDS011;5558;42.702;23.178;2023-12-04T07:31:25;9.23;;;6.33;;
11010;SDS011;5558;42.702;23.178;2023-12-04T07:33:52;8.03;;;6.03;;
11010;SDS011;5558;42.702;23.178;2023-12-04T07:36:19;8.77;;;5.83;;
11010;SDS011;5558;42.702;23.178;2023-12-04T07:38:46;7.07;;;5.43;;
11010;SDS011;5558;42.702;23.178;2023-12-04T07:41:12;15.93;;;8.77;;
11010;SDS011;5558;42.702;23.178;2023-12-04T07:43:40;7.53;;;5.80;;
11010;SDS011;5558;42.702;23.178;2023-12-04T07:46:08;8.43;;;6.00;;
11010;SDS011;5558;42.702;23.178;2023-12-04T07:48:37;6.10;;;5.10;;
11010;SDS011;5558;42.702;23.178;2023-12-04T07:51:05;7.40;;;5.43;;
11010;SDS011;5558;42.702;23.178;2023-12-04T07:53:32;7.40;;;5.30;;
11010;SDS011;5558;42.702;23.178;2023-12-04T07:56:00;7.40;;;5.30;;
11010;SDS011;5558;42.702;23.178;2023-12-04T07:58:27;6.30;;;4.83;;
11010;SDS011;5558;42.702;23.178;2023-12-04T08:00:54;6.33;;;4.93;;
11010;SDS011;5558;42.702;23.178;2023-12-04T08:03:21;6.53;;;4.90;;
11010;SDS011;5558;42.702;23.178;2023-12-04T08:05:50;5.70;;;4.73;;
11010;SDS011;5558;42.702;23.178;2023-12-04T08:08:16;5.43;;;4.10;;
11010;SDS011;5558;42.702;23.178;2023-12-04T08:10:43;5.13;;;4.37;;
11010;SDS011;5558;42.702;23.178;2023-12-04T08:13:10;6.30;;;4.63;;
11010;SDS011;5558;42.702;23.178;2023-12-04T08:15:37;5.50;;;4.07;;
11010;SDS011;5558;42.702;23.178;2023-12-04T08:18:03;5.37;;;4.20;;
11010;SDS011;5558;42.702;23.178;2023-12-04T08:20:30;4.80;;;3.93;;
11010;SDS011;5558;42.702;23.178;2023-12-04T08:22:59;5.17;;;4.00;;
11010;SDS011;5558;42.702;23.178;2023-12-04T08:25:26;6.27;;;4.73;;
11010;SDS011;5558;42.702;23.178;2023-12-04T08:27:53;4.93;;;3.70;;
11010;SDS011;5558;42.702;23.178;2023-12-04T08:30:19;4.73;;;3.60;;
11010;SDS011;5558;42.702;23.178;2023-12-04T08:32:46;5.17;;;3.80;;
11010;SDS011;5558;42.702;23.178;2023-12-04T08:35:13;3.97;;;3.57;;
11010;SDS011;5558;42.702;23.178;2023-12-04T08:37:40;4.30;;;3.40;;
11010;SDS011;5558;42.702;23.178;2023-12-04T08:40:09;4.00;;;3.53;;
11010;SDS011;5558;42.702;23.178;2023-12-04T08:42:37;4.37;;;3.60;;
11010;SDS011;5558;42.702;23.178;2023-12-04T08:45:04;3.97;;;3.57;;
11010;SDS011;5558;42.702;23.178;2023-12-04T08:47:33;4.73;;;3.73;;
11010;SDS011;5558;42.702;23.178;2023-12-04T08:50:00;6.33;;;3.87;;
11010;SDS011;5558;42.702;23.178;2023-12-04T08:52:27;4.77;;;4.00;;
11010;SDS011;5558;42.702;23.178;2023-12-04T08:54:54;4.73;;;3.83;;
11010;SDS011;5558;42.702;23.178;2023-12-04T08:57:22;3.70;;;3.20;;
11010;SDS011;5558;42.702;23.178;2023-12-04T08:59:48;4.03;;;3.20;;
11010;SDS011;5558;42.702;23.178;2023-12-04T09:02:15;5.10;;;3.50;;
11010;SDS011;5558;42.702;23.178;2023-12-04T09:04:42;3.30;;;2.90;;
11010;SDS011;5558;42.702;23.178;2023-12-04T09:07:09;3.60;;;3.10;;
11010;SDS011;5558;42.702;23.178;2023-12-04T09:09:35;3.93;;;3.30;;
11010;SDS011;5558;42.702;23.178;2023-12-04T09:12:02;4.30;;;2.90;;
11010;SDS011;5558;42.702;23.178;2023-12-04T09:14:30;3.30;;;2.83;;
11010;SDS011;5558;42.702;23.178;2023-12-04T09:16:57;4.07;;;3.00;;
11010;SDS011;5558;42.702;23.178;2023-12-04T09:19:24;4.00;;;3.10;;
11010;SDS011;5558;42.702;23.178;2023-12-04T09:21:51;3.70;;;2.70;;
11010;SDS011;5558;42.702;23.178;2023-12-04T09:24:17;3.53;;;3.00;;
11010;SDS011;5558;42.702;23.178;2023-12-04T09:26:44;3.30;;;3.00;;
11010;SDS011;5558;42.702;23.178;2023-12-04T09:29:11;3.50;;;2.97;;
11010;SDS011;5558;42.702;23.178;2023-12-04T09:31:40;4.00;;;3.30;;
11010;SDS011;5558;42.702;23.178;2023-12-04T09:34:06;3.60;;;3.30;;
11010;SDS011;5558;42.702;23.178;2023-12-04T09:36:33;3.97;;;3.13;;
11010;SDS011;5558;42.702;23.178;2023-12-04T09:39:00;3.83;;;3.30;;
11010;SDS011;5558;42.702;23.178;2023-12-04T09:41:29;3.27;;;2.97;;
11010;SDS011;5558;42.702;23.178;2023-12-04T09:43:56;4.03;;;3.20;;
11010;SDS011;5558;42.702;23.178;2023-12-04T09:46:23;3.30;;;2.90;;
11010;SDS011;5558;42.702;23.178;2023-12-04T09:48:53;3.70;;;3.00;;
11010;SDS011;5558;42.702;23.178;2023-12-04T09:51:21;3.20;;;2.90;;
11010;SDS011;5558;42.702;23.178;2023-12-04T09:53:48;3.10;;;2.80;;
11010;SDS011;5558;42.702;23.178;2023-12-04T09:56:15;5.43;;;3.20;;
11010;SDS011;5558;42.702;23.178;2023-12-04T09:58:43;3.63;;;3.23;;
11010;SDS011;5558;42.702;23.178;2023-12-04T10:01:11;4.57;;;3.40;;
11010;SDS011;5558;42.702;23.178;2023-12-04T10:03:38;4.37;;;3.40;;
11010;SDS011;5558;42.702;23.178;2023-12-04T10:06:08;3.57;;;2.97;;
11010;SDS011;5558;42.702;23.178;2023-12-04T10:08:37;3.13;;;2.83;;
11010;SDS011;5558;42.702;23.178;2023-12-04T10:11:04;3.57;;;3.17;;
11010;SDS011;5558;42.702;23.178;2023-12-04T10:13:31;3.23;;;2.83;;
11010;SDS011;5558;42.702;23.178;2023-12-04T10:15:58;3.20;;;2.87;;
11010;SDS011;5558;42.702;23.178;2023-12-04T10:18:25;3.07;;;2.80;;
11010;SDS011;5558;42.702;23.178;2023-12-04T10:20:52;3.37;;;3.03;;
11010;SDS011;5558;42.702;23.178;2023-12-04T10:23:22;3.27;;;2.97;;
11010;SDS011;5558;42.702;23.178;2023-12-04T10:25:49;3.17;;;2.87;;
11010;SDS011;5558;42.702;23.178;2023-12-04T10:28:17;3.40;;;3.10;;
11010;SDS011;5558;42.702;23.178;2023-12-04T10:30:44;3.93;;;3.30;;
11010;SDS011;5558;42.702;23.178;2023-12-04T10:33:11;3.33;;;2.93;;
11010;SDS011;5558;42.702;23.178;2023-12-04T10:35:40;4.13;;;3.53;;
11010;SDS011;5558;42.702;23.178;2023-12-04T10:38:08;3.37;;;3.07;;
11010;SDS011;5558;42.702;23.178;2023-12-04T10:40:36;4.60;;;3.20;;
11010;SDS011;5558;42.702;23.178;2023-12-04T10:43:10;3.80;;;3.00;;
11010;SDS011;5558;42.702;23.178;2023-12-04T10:45:38;3.50;;;2.80;;
11010;SDS011;5558;42.702;23.178;2023-12-04T10:48:07;3.57;;;2.93;;
11010;SDS011;5558;42.702;23.178;2023-12-04T10:50:35;3.80;;;3.30;;
11010;SDS011;5558;42.702;23.178;2023-12-04T10:53:04;3.27;;;2.90;;
11010;SDS011;5558;42.702;23.178;2023-12-04T10:55:31;3.57;;;3.10;;
11010;SDS011;5558;42.702;23.178;2023-12-04T10:58:00;3.50;;;3.20;;
11010;SDS011;5558;42.702;23.178;2023-12-04T11:00:29;3.93;;;3.00;;
11010;SDS011;5558;42.702;23.178;2023-12-04T11:03:00;3.60;;;3.00;;
11010;SDS011;5558;42.702;23.178;2023-12-04T11:05:31;3.10;;;2.80;;
11010;SDS011;5558;42.702;23.178;2023-12-04T11:08:00;3.47;;;3.10;;
11010;SDS011;5558;42.702;23.178;2023-12-04T11:10:30;3.40;;;2.80;;
11010;SDS011;5558;42.702;23.178;2023-12-04T11:13:00;6.03;;;3.40;;
11010;SDS011;5558;42.702;23.178;2023-12-04T11:15:31;5.87;;;4.17;;
11010;SDS011;5558;42.702;23.178;2023-12-04T11:18:01;3.50;;;3.07;;
11010;SDS011;5558;42.702;23.178;2023-12-04T11:20:29;3.67;;;3.00;;
11010;SDS011;5558;42.702;23.178;2023-12-04T11:23:03;3.63;;;3.20;;
11010;SDS011;5558;42.702;23.178;2023-12-04T11:25:31;3.60;;;2.90;;
11010;SDS011;5558;42.702;23.178;2023-12-04T11:28:01;3.73;;;3.20;;
11010;SDS011;5558;42.702;23.178;2023-12-04T11:30:29;3.40;;;3.10;;
11010;SDS011;5558;42.702;23.178;2023-12-04T11:32:57;3.10;;;2.70;;
11010;SDS011;5558;42.702;23.178;2023-12-04T11:35:26;3.60;;;3.00;;
11010;SDS011;5558;42.702;23.178;2023-12-04T11:37:54;3.33;;;2.90;;
11010;SDS011;5558;42.702;23.178;2023-12-04T11:40:20;3.30;;;2.90;;
11010;SDS011;5558;42.702;23.178;2023-12-04T11:42:47;3.93;;;2.93;;
11010;SDS011;5558;42.702;23.178;2023-12-04T11:45:19;3.33;;;3.03;;
11010;SDS011;5558;42.702;23.178;2023-12-04T11:47:49;3.03;;;2.80;;
11010;SDS011;5558;42.702;23.178;2023-12-04T11:50:18;3.40;;;2.90;;
11010;SDS011;5558;42.702;23.178;2023-12-04T11:52:46;3.30;;;3.00;;
11010;SDS011;5558;42.702;23.178;2023-12-04T11:55:15;2.70;;;2.50;;
11010;SDS011;5558;42.702;23.178;2023-12-04T11:57:42;3.03;;;2.77;;
11010;SDS011;5558;42.702;23.178;2023-12-04T12:00:14;3.30;;;3.00;;
11010;SDS011;5558;42.702;23.178;2023-12-04T12:02:49;3.23;;;2.93;;
11010;SDS011;5558;42.702;23.178;2023-12-04T12:05:28;3.97;;;3.13;;
11010;SDS011;5558;42.702;23.178;2023-12-04T12:07:59;3.97;;;3.40;;
11010;SDS011;5558;42.702;23.178;2023-12-04T12:10:27;2.90;;;2.60;;
11010;SDS011;5558;42.702;23.178;2023-12-04T12:12:54;2.97;;;2.67;;
11010;SDS011;5558;42.702;23.178;2023-12-04T12:15:23;3.63;;;2.90;;
11010;SDS011;5558;42.702;23.178;2023-12-04T12:17:49;3.20;;;2.90;;
11010;SDS011;5558;42.702;23.178;2023-12-04T12:20:17;3.07;;;2.77;;
11010;SDS011;5558;42.702;23.178;2023-12-04T12:22:45;3.13;;;2.80;;
11010;SDS011;5558;42.702;23.178;2023-12-04T12:25:13;2.90;;;2.60;;
11010;SDS011;5558;42.702;23.178;2023-12-04T12:27:40;4.30;;;3.03;;
11010;SDS011;5558;42.702;23.178;2023-12-04T12:30:08;4.50;;;3.30;;
11010;SDS011;5558;42.702;23.178;2023-12-04T12:32:36;3.57;;;2.77;;
11010;SDS011;5558;42.702;23.178;2023-12-04T12:35:03;3.60;;;3.13;;
11010;SDS011;5558;42.702;23.178;2023-12-04T12:37:30;3.20;;;2.90;;
11010;SDS011;5558;42.702;23.178;2023-12-04T12:39:57;4.10;;;3.20;;
11010;SDS011;5558;42.702;23.178;2023-12-04T12:42:24;4.00;;;3.50;;
11010;SDS011;5558;42.702;23.178;2023-12-04T12:44:51;4.93;;;4.03;;
11010;SDS011;5558;42.702;23.178;2023-12-04T12:47:19;7.13;;;4.00;;
11010;SDS011;5558;42.702;23.178;2023-12-04T12:49:47;5.60;;;4.03;;
11010;SDS011;5558;42.702;23.178;2023-12-04T12:52:14;4.43;;;3.73;;
11010;SDS011;5558;42.702;23.178;2023-12-04T12:54:41;6.10;;;4.20;;
11010;SDS011;5558;42.702;23.178;2023-12-04T12:57:09;6.53;;;4.30;;
11010;SDS011;5558;42.702;23.178;2023-12-04T12:59:37;4.67;;;3.93;;
11010;SDS011;5558;42.702;23.178;2023-12-04T13:02:04;6.17;;;3.90;;
11010;SDS011;5558;42.702;23.178;2023-12-04T13:04:34;4.93;;;4.30;;
11010;SDS011;5558;42.702;23.178;2023-12-04T13:07:02;6.57;;;4.90;;
11010;SDS011;5558;42.702;23.178;2023-12-04T13:09:32;9.17;;;5.00;;
11010;SDS011;5558;42.702;23.178;2023-12-04T13:12:00;7.17;;;5.03;;
11010;SDS011;5558;42.702;23.178;2023-12-04T13:14:27;6.97;;;5.20;;
11010;SDS011;5558;42.702;23.178;2023-12-04T13:16:54;7.07;;;5.33;;
11010;SDS011;5558;42.702;23.178;2023-12-04T13:19:21;11.20;;;6.20;;
11010;SDS011;5558;42.702;23.178;2023-12-04T13:21:48;28.00;;;20.73;;
11010;SDS011;5558;42.702;23.178;2023-12-04T13:24:16;11.57;;;7.07;;
11010;SDS011;5558;42.702;23.178;2023-12-04T13:26:43;8.10;;;6.17;;
11010;SDS011;5558;42.702;23.178;2023-12-04T13:29:09;9.87;;;6.97;;
11010;SDS011;5558;42.702;23.178;2023-12-04T13:31:36;8.70;;;6.13;;
11010;SDS011;5558;42.702;23.178;2023-12-04T13:34:03;8.60;;;6.67;;
11010;SDS011;5558;42.702;23.178;2023-12-04T13:36:31;8.73;;;6.97;;
11010;SDS011;5558;42.702;23.178;2023-12-04T13:38:58;9.53;;;7.07;;
11010;SDS011;5558;42.702;23.178;2023-12-04T13:41:26;9.23;;;6.83;;
11010;SDS011;5558;42.702;23.178;2023-12-04T13:44:10;9.47;;;6.63;;
11010;SDS011;5558;42.702;23.178;2023-12-04T13:46:40;10.93;;;8.20;;
11010;SDS011;5558;42.702;23.178;2023-12-04T13:49:07;12.93;;;9.03;;
11010;SDS011;5558;42.702;23.178;2023-12-04T13:51:33;11.10;;;7.57;;
11010;SDS011;5558;42.702;23.178;2023-12-04T13:54:05;9.20;;;7.10;;
11010;SDS011;5558;42.702;23.178;2023-12-04T13:56:46;10.13;;;6.90;;
11010;SDS011;5558;42.702;23.178;2023-12-04T13:59:18;10.83;;;7.00;;
11010;SDS011;5558;42.702;23.178;2023-12-04T14:01:46;15.50;;;8.50;;
11010;SDS011;5558;42.702;23.178;2023-12-04T14:04:16;11.17;;;7.87;;
11010;SDS011;5558;42.702;23.178;2023-12-04T14:06:49;12.50;;;9.20;;
11010;SDS011;5558;42.702;23.178;2023-12-04T14:19:24;11.57;;;8.37;;
11010;SDS011;5558;42.702;23.178;2023-12-04T14:21:51;12.20;;;8.73;;
11010;SDS011;5558;42.702;23.178;2023-12-04T14:24:18;12.60;;;9.00;;
11010;SDS011;5558;42.702;23.178;2023-12-04T14:26:46;12.50;;;8.70;;
11010;SDS011;5558;42.702;23.178;2023-12-04T14:29:13;12.60;;;8.80;;
11010;SDS011;5558;42.702;23.178;2023-12-04T14:31:41;12.17;;;9.60;;
11010;SDS011;5558;42.702;23.178;2023-12-04T14:34:08;15.17;;;10.63;;
11010;SDS011;5558;42.702;23.178;2023-12-04T14:36:34;17.67;;;10.87;;
11010;SDS011;5558;42.702;23.178;2023-12-04T14:39:02;17.67;;;12.83;;
11010;SDS011;5558;42.702;23.178;2023-12-04T14:41:29;33.47;;;21.53;;
11010;SDS011;5558;42.702;23.178;2023-12-04T14:43:56;24.70;;;17.40;;
11010;SDS011;5558;42.702;23.178;2023-12-04T14:46:23;22.97;;;16.40;;
11010;SDS011;5558;42.702;23.178;2023-12-04T14:48:51;14.57;;;10.20;;
11010;SDS011;5558;42.702;23.178;2023-12-04T14:51:18;14.87;;;9.70;;
11010;SDS011;5558;42.702;23.178;2023-12-04T14:53:45;13.07;;;9.03;;
11010;SDS011;5558;42.702;23.178;2023-12-04T14:56:15;13.70;;;8.57;;
11010;SDS011;5558;42.702;23.178;2023-12-04T14:58:50;14.27;;;9.50;;